Time;durP1;ratioP1;P1;durP2;ratioP2;P2;SDS_P1;SDS_P2;PMS_P1;PMS_P2;Temp;Humidity;BMP_temperature;BMP_pressure;BME280_temperature;BME280_humidity;BME280_pressure;Samples;Min_cycle;Max_cycle;Signal;HPM_P1;HPM_P2
2021/08/21 00:00:24;;;;;;;3.70;2.78;;;16.30;71.80;;;16.11;57.28;95258.63;5051427;28;20247;-77
2021/08/21 00:02:51;;;;;;;4.50;2.90;;;16.30;71.70;;;16.14;56.81;95260.00;5018793;28;20661;-77
2021/08/21 00:05:19;;;;;;;3.28;2.90;;;16.40;71.70;;;16.15;56.84;95264.28;5041203;28;20295;-77
2021/08/21 00:07:47;;;;;;;3.00;2.70;;;16.30;71.50;;;16.14;57.15;95260.81;5036687;28;20228;-77
2021/08/21 00:10:15;;;;;;;3.72;3.33;;;16.40;71.80;;;16.16;57.05;95263.22;5031771;28;20240;-77
2021/08/21 00:12:43;;;;;;;3.60;3.20;;;16.30;71.80;;;16.16;57.41;95265.88;5031667;28;20204;-77
2021/08/21 00:15:14;;;;;;;4.28;3.33;;;16.30;71.90;;;16.18;57.65;95269.13;5031787;28;20258;-78
2021/08/21 00:17:41;;;;;;;5.05;3.40;;;16.30;72.40;;;16.19;57.48;95264.66;5011579;28;20724;-77
2021/08/21 00:20:09;;;;;;;3.70;3.13;;;16.30;72.10;;;16.17;57.75;95257.75;5051460;28;20534;-77
2021/08/21 00:22:37;;;;;;;3.13;2.83;;;16.40;72.20;;;16.17;57.32;95268.31;5033440;28;20551;-77
2021/08/21 00:25:06;;;;;;;3.63;3.28;;;16.30;72.00;;;16.14;58.22;95258.16;5030610;28;20287;-77
2021/08/21 00:27:34;;;;;;;3.58;3.22;;;16.30;72.20;;;16.15;58.34;95259.00;5029996;28;20208;-77
2021/08/21 00:30:02;;;;;;;6.40;3.90;;;16.40;72.30;;;16.13;58.81;95261.84;5003052;28;20327;-77
2021/08/21 00:32:31;;;;;;;4.93;3.20;;;16.40;72.60;;;16.14;58.69;95249.44;5026424;28;20627;-77
2021/08/21 00:34:58;;;;;;;3.45;3.05;;;16.30;72.60;;;16.14;58.20;95255.53;5050557;28;20250;-77
2021/08/21 00:37:25;;;;;;;3.67;2.92;;;16.40;72.30;;;16.12;57.65;95254.13;5051184;28;20206;-78
2021/08/21 00:39:52;;;;;;;3.50;2.80;;;16.30;72.10;;;16.09;57.23;95254.56;5018236;28;20627;-77
2021/08/21 00:42:20;;;;;;;3.17;2.88;;;16.30;72.00;;;16.02;58.15;95249.31;5009382;28;20645;-77
2021/08/21 00:44:47;;;;;;;3.53;2.80;;;16.30;72.40;;;16.05;58.36;95251.56;5031153;28;20290;-77
2021/08/21 00:47:19;;;;;;;3.28;2.97;;;16.30;72.50;;;16.07;58.43;95253.97;5031128;28;20184;-77
2021/08/21 00:49:55;;;;;;;4.00;3.17;;;16.40;73.00;;;16.06;58.46;95247.84;5031032;28;20314;-77
2021/08/21 00:52:29;;;;;;;3.20;2.90;;;16.20;73.30;;;16.06;58.63;95247.84;5024688;28;20294;-77
2021/08/21 00:54:58;;;;;;;3.40;2.90;;;16.30;73.40;;;16.06;58.52;95250.50;5050822;28;20246;-77
2021/08/21 00:57:28;;;;;;;5.85;2.80;;;16.20;72.70;;;16.06;57.89;95250.50;5050796;28;20196;-77
2021/08/21 00:59:56;;;;;;;2.92;2.53;;;16.30;72.50;;;16.03;57.78;95248.31;5050174;28;20285;-77
2021/08/21 01:02:24;;;;;;;3.50;2.78;;;16.20;72.20;;;15.99;57.66;95249.75;5016060;28;20681;-77
2021/08/21 01:04:55;;;;;;;4.65;2.70;;;16.20;72.20;;;15.94;57.46;95239.84;5030942;28;20250;-77
2021/08/21 01:07:30;;;;;;;3.03;2.72;;;16.20;72.30;;;15.88;57.64;95243.34;4999742;28;20223;-77
2021/08/21 01:10:05;;;;;;;2.80;2.47;;;16.10;72.10;;;15.87;57.16;95248.84;5014700;28;20227;-77
2021/08/21 01:12:36;;;;;;;4.00;2.55;;;16.10;72.40;;;15.81;57.50;95253.94;5029727;28;20314;-77
2021/08/21 01:15:06;;;;;;;3.05;2.60;;;16.10;71.80;;;15.77;57.32;95251.94;5030780;28;20220;-77
2021/08/21 01:17:35;;;;;;;2.67;2.47;;;16.00;71.80;;;15.73;57.61;95248.13;5031174;28;20289;-77
2021/08/21 01:20:07;;;;;;;3.47;2.80;;;16.00;72.10;;;15.67;57.71;95250.59;5038477;28;20677;-77
2021/08/21 01:22:37;;;;;;;4.85;3.40;;;16.00;72.10;;;15.64;57.74;95251.03;5030449;28;20196;-76
2021/08/21 01:25:23;;;;;;;4.78;3.10;;;16.00;72.30;;;15.60;57.99;95249.84;5015848;28;20286;-77
2021/08/21 01:27:51;;;;;;;3.75;3.05;;;15.90;72.80;;;15.56;57.88;95253.13;4998177;28;20701;-77
2021/08/21 01:30:39;;;;;;;3.45;2.53;;;15.90;72.20;;;15.52;57.70;95250.91;5031736;28;20277;-77
2021/08/21 01:33:15;;;;;;;3.85;2.80;;;15.90;72.10;;;15.49;57.87;95253.16;5034896;28;20213;-77
2021/08/21 01:35:43;;;;;;;4.65;2.90;;;15.80;72.10;;;15.47;57.86;95260.50;5050357;28;20226;-77
2021/08/21 01:38:10;;;;;;;4.32;3.42;;;15.80;72.20;;;15.42;57.53;95253.22;5047998;28;20195;-77
2021/08/21 01:40:57;;;;;;;3.67;2.70;;;15.70;72.20;;;15.38;57.72;95252.03;5030542;28;20556;-77
2021/08/21 01:43:30;;;;;;;2.55;2.35;;;15.70;72.30;;;15.34;57.67;95243.72;5014911;28;20714;-77
2021/08/21 01:46:00;;;;;;;4.60;3.13;;;15.70;72.40;;;15.33;57.79;95244.75;5030215;28;20220;-76
2021/08/21 01:48:28;;;;;;;3.10;2.80;;;15.70;72.60;;;15.31;58.07;95238.84;5014082;28;20226;-77
2021/08/21 01:50:55;;;;;;;3.53;2.70;;;15.60;72.60;;;15.33;58.05;95247.38;5030768;28;20274;-77
2021/08/21 01:53:24;;;;;;;3.15;2.85;;;15.60;72.60;;;15.32;58.23;95248.41;5030541;28;20287;-76
2021/08/21 01:55:51;;;;;;;3.53;2.90;;;15.60;72.90;;;15.32;58.42;95244.97;5030413;28;20700;-78
2021/08/21 01:58:48;;;;;;;3.30;3.00;;;15.50;73.00;;;15.29;58.18;95238.25;5018103;28;20204;-77
2021/08/21 02:01:26;;;;;;;3.63;2.85;;;15.60;73.00;;;15.27;58.28;95237.66;5031945;28;20231;-77
2021/08/21 02:04:12;;;;;;;2.90;2.60;;;15.50;73.00;;;15.27;58.33;95239.47;5016843;28;20215;-77
2021/08/21 02:06:39;;;;;;;3.78;2.80;;;15.60;72.90;;;15.26;58.21;95243.13;5015714;28;20223;-77
2021/08/21 02:09:09;;;;;;;3.20;2.60;;;15.50;72.90;;;15.23;58.21;95239.09;5001702;28;20262;-77
2021/08/21 02:11:36;;;;;;;3.08;2.70;;;15.50;72.80;;;15.19;58.13;95233.44;5032793;28;20222;-77
2021/08/21 02:14:04;;;;;;;3.83;2.85;;;15.50;72.80;;;15.19;58.36;95235.28;5033496;28;20249;-78
2021/08/21 02:16:32;;;;;;;3.17;2.80;;;15.50;72.90;;;15.14;58.20;95227.97;5032453;28;20228;-76
2021/08/21 02:19:00;;;;;;;3.20;2.90;;;15.50;72.90;;;15.13;58.24;95231.63;5043487;28;20689;-77
2021/08/21 02:21:42;;;;;;;3.00;2.70;;;15.40;73.00;;;15.13;58.34;95236.13;5019860;28;20277;-77
2021/08/21 02:24:10;;;;;;;3.10;2.80;;;15.40;73.00;;;15.10;58.57;95234.72;5033490;28;20211;-76
2021/08/21 02:26:43;;;;;;;3.38;2.83;;;15.40;73.10;;;15.09;58.56;95234.91;5033249;28;20302;-77
2021/08/21 02:29:14;;;;;;;3.33;2.92;;;15.40;73.20;;;15.05;58.35;95232.72;5021985;28;20685;-76
2021/08/21 02:31:42;;;;;;;3.22;2.90;;;15.40;73.20;;;15.05;58.45;95237.19;5045713;28;20669;-77
2021/08/21 02:34:10;;;;;;;3.53;2.80;;;15.40;73.20;;;15.02;58.50;95238.41;5013300;28;20246;-77
2021/08/21 02:36:41;;;;;;;3.97;3.45;;;15.30;73.10;;;15.01;58.45;95239.44;5013169;28;20319;-77
2021/08/21 02:39:09;;;;;;;4.40;3.10;;;15.30;73.60;;;15.00;58.64;95231.72;5013427;28;20203;-77
2021/08/21 02:41:37;;;;;;;4.22;3.00;;;15.30;73.40;;;14.96;58.69;95235.81;5013474;28;20885;-77
2021/08/21 02:44:05;;;;;;;3.60;2.80;;;15.30;73.40;;;14.95;58.62;95237.66;5029418;28;20267;-76
2021/08/21 02:46:32;;;;;;;3.47;2.95;;;15.30;73.40;;;14.91;58.81;95241.72;5030182;28;20382;-77
2021/08/21 02:49:00;;;;;;;3.13;2.83;;;15.20;73.20;;;14.92;58.62;95247.81;5015460;28;20247;-78
2021/08/21 02:51:27;;;;;;;3.00;2.72;;;15.30;73.40;;;14.87;58.73;95241.31;5031081;28;20266;-77
2021/08/21 02:53:54;;;;;;;2.92;2.63;;;15.10;73.20;;;14.85;58.82;95238.06;5018251;28;20575;-76
2021/08/21 02:56:22;;;;;;;3.17;2.85;;;15.10;73.30;;;14.83;58.87;95237.50;5033942;28;20211;-77
2021/08/21 02:58:51;;;;;;;2.83;2.50;;;15.20;73.50;;;14.82;58.72;95237.72;5034393;28;20254;-77
2021/08/21 03:01:19;;;;;;;4.20;2.60;;;15.10;73.40;;;14.80;58.99;95237.91;5034767;28;20233;-77
2021/08/21 03:03:46;;;;;;;3.90;2.55;;;15.10;73.30;;;14.77;58.79;95245.44;5017344;28;20286;-77
2021/08/21 03:06:16;;;;;;;3.10;2.80;;;15.10;73.40;;;14.73;58.99;95247.69;5016585;28;20224;-77
2021/08/21 03:08:43;;;;;;;2.95;2.53;;;15.00;73.30;;;14.71;58.77;95245.25;5052088;28;20281;-76
2021/08/21 03:11:11;;;;;;;3.30;2.92;;;15.00;73.40;;;14.69;58.96;95249.13;5052728;28;20243;-77
2021/08/21 03:13:58;;;;;;;2.88;2.65;;;15.00;73.40;;;14.63;58.89;95244.66;5038509;28;20200;-76
2021/08/21 03:16:26;;;;;;;4.28;2.83;;;14.90;73.20;;;14.58;58.89;95234.72;5032451;28;20223;-76
2021/08/21 03:18:53;;;;;;;3.28;2.97;;;14.90;73.20;;;14.58;59.04;95240.00;5015199;28;20208;-77
2021/08/21 03:21:22;;;;;;;5.78;2.70;;;14.90;73.30;;;14.55;59.06;95245.72;5040970;28;20477;-76
2021/08/21 03:23:51;;;;;;;3.80;2.70;;;15.00;73.50;;;14.53;58.91;95243.25;5046177;28;20228;-77
2021/08/21 03:26:18;;;;;;;3.17;2.88;;;14.80;73.40;;;14.53;59.25;95242.47;5032434;28;20779;-77
2021/08/21 03:28:49;;;;;;;4.18;2.95;;;14.80;73.60;;;14.50;59.21;95246.31;5016876;28;20296;-77
2021/08/21 03:31:16;;;;;;;3.88;3.50;;;14.90;73.80;;;14.49;59.17;95247.34;5017335;28;20204;-76
2021/08/21 03:33:45;;;;;;;4.80;3.20;;;14.80;74.00;;;14.49;59.38;95246.50;5023397;28;20188;-77
2021/08/21 03:36:12;;;;;;;3.88;3.10;;;14.80;74.30;;;14.51;59.77;95253.22;5019386;28;20223;-78
2021/08/21 03:38:42;;;;;;;3.38;2.70;;;14.80;74.40;;;14.51;59.75;95255.03;5035389;28;20195;-76
2021/08/21 03:41:14;;;;;;;3.63;2.85;;;14.80;74.40;;;14.49;59.56;95255.25;5052117;28;20682;-77
2021/08/21 03:43:54;;;;;;;4.40;2.70;;;14.80;74.20;;;14.47;59.44;95256.47;5018529;28;20235;-77
2021/08/21 03:46:22;;;;;;;3.97;2.70;;;14.70;74.10;;;14.46;60.00;95260.94;5024276;28;20218;-77
2021/08/21 03:48:50;;;;;;;4.30;2.70;;;14.80;74.00;;;14.44;59.57;95262.16;5018302;28;20230;-77
2021/08/21 03:51:19;;;;;;;3.88;3.13;;;14.70;73.90;;;14.43;59.26;95264.00;5014438;28;20311;-77
2021/08/21 03:53:48;;;;;;;3.60;2.90;;;14.70;74.00;;;14.40;59.53;95274.97;5017709;28;20206;-77
2021/08/21 03:56:16;;;;;;;3.20;2.90;;;14.70;74.10;;;14.39;59.57;95265.41;5013420;28;20220;-77
2021/08/21 03:58:51;;;;;;;3.10;2.80;;;14.70;74.00;;;14.36;59.51;95263.22;5046148;28;20223;-77
2021/08/21 04:01:20;;;;;;;3.13;2.38;;;14.70;74.20;;;14.35;59.63;95267.66;5029847;28;20243;-77
2021/08/21 04:03:53;;;;;;;3.20;2.90;;;14.60;74.20;;;14.34;59.73;95266.06;5000855;28;20243;-76
2021/08/21 04:06:22;;;;;;;3.50;2.90;;;14.60;74.20;;;14.32;59.67;95265.44;5030851;28;20220;-77
2021/08/21 04:08:49;;;;;;;3.10;2.80;;;14.60;74.30;;;14.32;59.68;95262.81;5025433;28;20239;-78
2021/08/21 04:11:25;;;;;;;4.63;2.50;;;14.60;74.40;;;14.31;59.78;95261.19;5016776;28;20310;-77
2021/08/21 04:14:06;;;;;;;3.13;2.72;;;14.60;74.40;;;14.31;59.86;95277.00;5017494;28;20651;-77
2021/08/21 04:16:34;;;;;;;3.00;2.70;;;14.60;74.50;;;14.31;59.84;95273.56;5022489;28;20224;-77
2021/08/21 04:19:01;;;;;;;4.32;2.72;;;14.70;74.60;;;14.31;59.78;95278.84;4999193;28;20203;-77
2021/08/21 04:21:39;;;;;;;3.40;3.00;;;14.50;74.50;;;14.32;59.91;95280.44;5016156;28;20310;-77
2021/08/21 04:24:17;;;;;;;3.00;2.70;;;14.60;74.70;;;14.34;60.25;95275.78;5026658;28;20238;-78
2021/08/21 04:26:49;;;;;;;3.38;2.60;;;14.50;74.70;;;14.34;59.99;95279.25;5026779;28;20235;-78
2021/08/21 04:29:17;;;;;;;3.97;3.00;;;14.70;74.80;;;14.37;60.09;95280.66;5014634;28;20727;-78
2021/08/21 04:31:44;;;;;;;3.40;2.60;;;14.60;74.90;;;14.36;60.01;95277.19;5015004;28;20315;-78
2021/08/21 04:34:12;;;;;;;7.43;2.75;;;14.60;75.00;;;14.41;60.04;95284.50;5031804;28;20282;-77
2021/08/21 04:36:39;;;;;;;7.07;3.00;;;14.60;75.00;;;14.42;60.04;95280.84;5035020;28;20208;-78
2021/08/21 04:39:09;;;;;;;3.08;2.63;;;14.70;75.00;;;14.46;60.29;95283.88;5018028;28;20654;-78
2021/08/21 04:41:37;;;;;;;3.63;3.25;;;14.60;75.10;;;14.49;60.42;95291.38;5032464;28;20226;-78
2021/08/21 04:44:05;;;;;;;3.15;2.83;;;14.60;75.10;;;14.54;60.39;95289.75;5014739;28;20196;-77
2021/08/21 04:46:34;;;;;;;4.13;2.50;;;14.70;75.30;;;14.58;60.01;95292.78;5015310;28;20682;-77
2021/08/21 04:49:03;;;;;;;3.38;2.95;;;14.80;75.50;;;14.63;60.33;95285.06;5034856;28;20607;-77
2021/08/21 04:51:32;;;;;;;3.28;2.90;;;14.70;75.50;;;14.70;60.40;95287.72;5014815;28;20222;-78
2021/08/21 04:54:04;;;;;;;2.60;2.40;;;14.80;75.70;;;14.75;60.50;95287.91;5015315;28;20254;-78
2021/08/21 04:56:31;;;;;;;2.70;2.50;;;14.80;75.90;;;14.84;60.65;95286.66;5014713;28;20212;-76
2021/08/21 04:59:20;;;;;;;2.97;2.67;;;14.90;76.10;;;14.90;60.45;95284.97;5037166;28;20579;-76
2021/08/21 05:01:50;;;;;;;4.88;2.83;;;14.90;76.10;;;14.99;60.75;95289.03;5028463;28;20231;-76
2021/08/21 05:04:19;;;;;;;4.63;3.00;;;14.90;76.20;;;15.05;60.61;95288.19;5025556;28;20559;-77
2021/08/21 05:06:49;;;;;;;3.45;3.08;;;15.00;76.30;;;15.12;60.49;95289.97;5047058;28;20302;-77
2021/08/21 05:09:16;;;;;;;3.45;3.15;;;15.10;76.50;;;15.23;60.71;95299.06;5030814;28;20215;-77
2021/08/21 05:11:48;;;;;;;3.60;3.30;;;15.10;76.60;;;15.30;60.77;95299.84;5017526;28;20269;-76
2021/08/21 05:14:16;;;;;;;4.85;3.15;;;15.20;76.70;;;15.38;60.99;95294.31;5034653;28;20203;-77
2021/08/21 05:16:46;;;;;;;3.80;3.22;;;15.30;76.70;;;15.48;61.17;95301.78;5009743;28;20278;-77
2021/08/21 05:19:37;;;;;;;3.63;3.13;;;15.40;76.90;;;15.51;61.08;95294.25;5031631;28;20202;-77
2021/08/21 05:22:38;;;;;;;3.55;3.03;;;15.40;77.00;;;15.63;61.28;95302.28;5016277;28;20626;-77
2021/08/21 05:25:06;;;;;;;4.00;2.75;;;15.50;76.90;;;15.72;60.96;95296.75;5018706;28;20267;-77
2021/08/21 05:27:34;;;;;;;3.63;2.88;;;15.60;76.90;;;15.77;60.97;95296.91;5014468;28;20562;-77
2021/08/21 05:30:04;;;;;;;3.40;3.10;;;15.70;77.00;;;15.88;60.85;95300.72;5033196;28;20257;-77
2021/08/21 05:32:35;;;;;;;3.72;3.00;;;15.70;77.10;;;15.96;60.73;95301.25;5009244;28;20193;-77
2021/08/21 05:35:03;;;;;;;2.90;2.60;;;15.80;77.10;;;16.06;61.13;95310.56;5014363;28;20216;-77
2021/08/21 05:37:30;;;;;;;3.22;2.92;;;15.90;77.30;;;16.12;61.00;95299.91;5024683;28;20253;-77
2021/08/21 05:39:58;;;;;;;4.13;2.95;;;16.00;77.30;;;16.23;60.96;95306.31;5014523;28;20230;-78
2021/08/21 05:42:25;;;;;;;3.58;2.90;;;16.10;77.50;;;16.32;61.00;95305.03;5033787;28;20219;-77
2021/08/21 05:44:52;;;;;;;3.28;2.97;;;16.10;77.50;;;16.41;60.80;95307.41;5037515;28;20294;-78
2021/08/21 05:47:19;;;;;;;3.33;2.97;;;16.20;77.60;;;16.54;61.42;95309.91;5021283;28;20299;-78
2021/08/21 05:49:46;;;;;;;3.75;3.10;;;16.30;77.70;;;16.64;61.28;95312.84;5037625;28;20226;-77
2021/08/21 05:52:14;;;;;;;3.97;3.45;;;16.40;77.80;;;16.75;61.27;95318.47;5048283;28;20207;-78
2021/08/21 05:54:41;;;;;;;4.05;3.22;;;16.50;77.80;;;16.85;60.84;95310.00;5017817;28;20219;-78
2021/08/21 05:57:20;;;;;;;3.65;3.25;;;16.60;77.70;;;16.96;61.39;95314.59;5019635;28;20204;-77
2021/08/21 05:59:47;;;;;;;3.65;3.35;;;16.70;78.50;;;17.07;61.04;95319.13;5034326;28;20202;-77
2021/08/21 06:02:15;;;;;;;3.50;3.20;;;16.80;77.70;;;17.18;61.08;95314.94;5041164;28;20203;-78
2021/08/21 06:04:42;;;;;;;3.40;3.10;;;16.80;77.60;;;17.30;61.25;95317.63;5020953;28;20668;-77
2021/08/21 06:07:09;;;;;;;5.25;3.42;;;16.90;77.70;;;17.40;60.89;95314.44;5037535;28;20202;-78
2021/08/21 06:09:36;;;;;;;4.03;3.15;;;17.00;77.80;;;17.53;61.15;95322.22;5037365;28;20215;-78
2021/08/21 06:12:04;;;;;;;3.97;3.53;;;17.20;77.90;;;17.64;60.79;95325.97;5034027;28;20238;-78
2021/08/21 06:14:34;;;;;;;4.63;2.97;;;17.20;77.90;;;17.76;60.86;95326.00;5017350;28;20614;-77
2021/08/21 06:17:01;;;;;;;3.60;3.10;;;17.40;78.10;;;17.87;60.79;95330.53;5023322;28;20195;-76
2021/08/21 06:19:29;;;;;;;3.60;3.30;;;17.50;78.00;;;17.99;60.83;95327.09;5052405;28;20587;-77
2021/08/21 06:21:56;;;;;;;3.95;3.55;;;17.60;78.00;;;18.11;60.60;95335.09;5024360;28;20196;-78
2021/08/21 06:24:24;;;;;;;5.05;3.80;;;17.70;77.80;;;18.21;61.07;95328.19;5034945;28;20271;-77
2021/08/21 06:26:51;;;;;;;4.50;3.90;;;17.80;77.80;;;18.32;60.46;95333.72;5017358;28;20227;-77
2021/08/21 06:29:19;;;;;;;3.75;3.28;;;17.90;77.70;;;18.42;60.74;95328.66;5001667;28;20228;-77
2021/08/21 06:31:46;;;;;;;5.53;3.75;;;18.00;77.50;;;18.54;60.37;95342.75;5033820;28;20208;-77
2021/08/21 06:34:14;;;;;;;5.32;3.90;;;18.10;77.60;;;18.64;60.55;95338.69;5017128;28;20662;-76
2021/08/21 06:36:41;;;;;;;5.47;3.70;;;18.20;77.60;;;18.74;60.10;95328.28;5049320;28;20311;-77
2021/08/21 06:39:08;;;;;;;4.53;4.00;;;18.30;77.50;;;18.85;60.26;95334.63;5055234;28;20224;-78
2021/08/21 06:41:35;;;;;;;3.95;3.55;;;18.40;77.50;;;18.96;60.31;95331.16;5033402;28;20277;-79
2021/08/21 06:44:04;;;;;;;3.85;3.38;;;18.50;77.50;;;19.09;60.12;95337.28;5020319;28;20242;-79
2021/08/21 06:46:41;;;;;;;3.88;3.40;;;18.60;77.40;;;19.19;59.85;95329.50;5018315;28;20215;-77
2021/08/21 06:49:08;;;;;;;3.80;3.40;;;18.70;77.40;;;19.30;60.04;95327.88;5016787;28;20228;-76
2021/08/21 06:51:36;;;;;;;3.92;3.47;;;18.80;77.30;;;19.43;59.58;95332.09;5032746;28;20296;-76
2021/08/21 06:54:04;;;;;;;3.58;3.00;;;18.90;77.40;;;19.52;59.72;95328.81;5045358;28;20196;-77
2021/08/21 06:56:31;;;;;;;3.70;3.00;;;19.00;77.20;;;19.65;59.57;95333.03;5028279;28;20452;-78
2021/08/21 06:58:58;;;;;;;3.30;3.00;;;19.20;77.20;;;19.73;59.73;95323.84;5014996;28;20681;-77
2021/08/21 07:01:27;;;;;;;3.38;3.08;;;19.20;77.70;;;19.88;59.34;95331.31;5015165;28;20306;-78
2021/08/21 07:03:55;;;;;;;3.88;3.35;;;19.30;77.00;;;19.99;59.28;95325.13;5020966;28;20215;-78
2021/08/21 07:06:23;;;;;;;4.43;3.55;;;19.40;76.90;;;20.10;59.05;95323.47;5034752;28;20219;-78
2021/08/21 07:08:50;;;;;;;4.15;3.70;;;19.50;76.80;;;20.23;59.15;95329.50;5052807;28;20184;-77
2021/08/21 07:11:17;;;;;;;4.60;3.55;;;19.70;76.50;;;20.31;59.25;95324.56;5020106;28;20219;-77
2021/08/21 07:13:45;;;;;;;3.25;2.95;;;19.80;76.50;;;20.42;58.65;95316.72;5052396;28;20253;-78
2021/08/21 07:16:14;;;;;;;5.63;3.47;;;19.90;76.40;;;20.58;58.45;95328.41;5036564;28;20223;-77
2021/08/21 07:18:41;;;;;;;3.85;3.28;;;20.00;77.10;;;20.69;58.31;95329.34;5035287;28;20249;-76
2021/08/21 07:21:10;;;;;;;4.15;3.00;;;20.10;76.20;;;20.79;58.50;95327.69;5052847;28;20786;-78
2021/08/21 07:23:37;;;;;;;4.15;3.20;;;20.20;76.00;;;20.89;58.08;95329.66;5015947;28;20208;-77
2021/08/21 07:26:05;;;;;;;3.75;3.10;;;20.30;75.90;;;21.01;57.89;95326.91;5051728;28;20684;-77
2021/08/21 07:28:33;;;;;;;3.55;2.97;;;20.40;75.70;;;21.12;57.56;95333.16;5035104;28;20290;-78
2021/08/21 07:31:01;;;;;;;3.40;3.10;;;20.50;75.60;;;21.21;57.64;95328.19;5021414;28;20682;-77
2021/08/21 07:33:29;;;;;;;3.70;3.40;;;20.60;75.60;;;21.32;57.53;95340.59;5031563;28;20199;-77
2021/08/21 07:35:56;;;;;;;3.10;2.80;;;20.70;75.30;;;21.41;57.71;95335.63;5041143;28;20695;-78
2021/08/21 07:38:23;;;;;;;4.95;3.95;;;20.80;75.30;;;21.51;57.48;95326.94;5047013;28;20207;-77
2021/08/21 07:40:51;;;;;;;3.28;2.97;;;20.90;75.20;;;21.63;57.52;95330.31;5032481;28;20208;-78
2021/08/21 07:43:19;;;;;;;3.72;3.42;;;21.00;75.10;;;21.73;56.88;95332.28;5015954;28;20200;-78
2021/08/21 07:45:46;;;;;;;4.35;3.67;;;21.10;75.70;;;21.81;56.79;95331.00;5032313;28;20748;-77
2021/08/21 07:48:15;;;;;;;3.65;3.17;;;21.20;74.90;;;21.93;56.58;95333.53;5028683;28;20196;-78
2021/08/21 07:50:44;;;;;;;3.55;3.22;;;21.30;74.70;;;22.02;56.76;95332.81;5035672;28;20231;-78
2021/08/21 07:53:12;;;;;;;4.38;2.80;;;21.40;74.80;;;22.11;56.31;95330.47;5026769;28;20229;-79
2021/08/21 07:55:40;;;;;;;4.05;3.45;;;21.50;74.60;;;22.18;56.73;95336.41;5040448;28;20215;-79
2021/08/21 07:58:07;;;;;;;3.80;3.40;;;21.60;74.70;;;22.27;56.60;95325.25;5046734;28;20261;-79
2021/08/21 08:00:34;;;;;;;3.33;3.03;;;21.70;74.40;;;22.35;56.45;95335.44;5032750;28;20214;-79
2021/08/21 08:03:02;;;;;;;4.25;3.30;;;21.70;74.20;;;22.42;56.07;95335.28;5035458;28;20201;-78
2021/08/21 08:05:29;;;;;;;3.55;3.13;;;21.80;74.00;;;22.49;55.78;95338.53;5050734;28;20200;-78
2021/08/21 08:07:56;;;;;;;3.17;2.88;;;21.90;74.30;;;22.55;55.58;95332.97;5051598;28;20604;-80
2021/08/21 08:10:23;;;;;;;3.90;3.33;;;21.90;73.70;;;22.63;55.50;95334.34;5034855;28;20241;-80
2021/08/21 08:12:50;;;;;;;5.07;3.83;;;22.00;73.60;;;22.72;55.71;95337.34;5031040;28;20209;-80
2021/08/21 08:15:18;;;;;;;6.53;3.33;;;22.10;73.50;;;22.82;55.53;95325.91;5015338;28;20228;-80
2021/08/21 08:17:45;;;;;;;3.53;2.97;;;22.10;73.40;;;22.91;55.10;95331.56;5048592;28;20815;-81
2021/08/21 08:20:13;;;;;;;4.00;3.25;;;22.30;73.40;;;22.99;55.19;95328.41;5039465;28;20336;-81
2021/08/21 08:22:41;;;;;;;3.67;3.30;;;22.30;73.30;;;23.09;55.12;95331.09;5031807;28;20257;-80
2021/08/21 08:25:09;;;;;;;3.72;3.35;;;22.40;73.00;;;23.18;54.84;95332.25;5037399;28;20227;-79
2021/08/21 08:27:37;;;;;;;4.10;3.35;;;22.50;72.80;;;23.25;54.28;95336.56;5018653;28;20304;-82
2021/08/21 08:30:05;;;;;;;3.88;3.38;;;22.60;72.50;;;23.32;54.41;95337.13;5035030;28;20304;-80
2021/08/21 08:32:33;;;;;;;4.05;3.60;;;22.60;72.40;;;23.38;54.50;95340.66;5027568;28;20252;-79
2021/08/21 08:35:00;;;;;;;3.53;3.22;;;22.70;72.20;;;23.44;54.03;95337.69;5011337;28;20438;-79
2021/08/21 08:37:27;;;;;;;3.30;3.00;;;22.80;72.10;;;23.52;53.90;95341.72;5050861;28;20641;-80
2021/08/21 08:39:54;;;;;;;3.33;3.03;;;22.90;72.00;;;23.60;53.81;95341.22;5034405;28;20234;-80
2021/08/21 08:42:22;;;;;;;3.95;3.55;;;22.90;71.80;;;23.67;53.44;95341.00;5032906;28;20222;-81
2021/08/21 08:44:49;;;;;;;6.55;3.92;;;23.00;71.80;;;23.75;53.82;95335.09;5034194;28;20195;-80
2021/08/21 08:47:18;;;;;;;4.50;3.40;;;23.10;72.20;;;23.86;53.05;95327.88;5051371;28;20257;-81
2021/08/21 08:49:48;;;;;;;4.03;3.63;;;23.10;71.80;;;23.96;53.45;95337.84;5030814;28;20232;-79
2021/08/21 08:52:18;;;;;;;3.40;3.10;;;23.20;71.60;;;24.04;53.34;95333.84;5016451;28;20665;-79
2021/08/21 08:54:46;;;;;;;3.83;3.50;;;23.30;71.50;;;24.14;52.79;95334.66;5031059;28;20200;-80
2021/08/21 08:57:32;;;;;;;6.00;2.88;;;23.40;71.30;;;24.24;52.56;95336.53;5015128;28;20237;-80
2021/08/21 09:00:00;;;;;;;2.80;2.58;;;23.50;71.10;;;24.36;52.55;95336.25;5019964;28;20213;-80
2021/08/21 09:02:42;;;;;;;3.50;2.88;;;23.60;71.50;;;24.51;52.23;95340.81;5032269;28;20200;-80
2021/08/21 09:05:14;;;;;;;3.28;2.97;;;23.70;70.90;;;24.67;52.15;95338.13;5014626;28;20254;-80
2021/08/21 09:07:54;;;;;;;3.40;3.10;;;23.80;71.10;;;24.87;52.10;95337.28;5014922;28;20223;-80
2021/08/21 09:10:33;;;;;;;3.08;2.78;;;23.90;70.50;;;25.04;51.46;95336.97;5029290;28;20226;-80
2021/08/21 09:13:08;;;;;;;3.15;2.85;;;24.10;70.30;;;25.24;51.59;95333.41;5051091;28;20286;-80
2021/08/21 09:15:38;;;;;;;5.45;3.00;;;24.20;70.20;;;25.49;51.34;95342.47;5034522;28;20399;-79
2021/08/21 09:18:13;;;;;;;3.78;3.28;;;24.40;70.50;;;25.69;50.78;95342.34;5038736;28;20342;-79
2021/08/21 09:20:46;;;;;;;3.30;3.00;;;24.60;69.90;;;25.88;50.53;95329.06;5007966;28;20215;-80
2021/08/21 09:23:29;;;;;;;4.45;3.00;;;24.70;69.70;;;26.11;50.51;95339.41;5035418;28;20223;-80
2021/08/21 09:26:30;;;;;;;4.07;3.00;;;25.00;69.80;;;26.28;50.19;95337.16;5018881;28;20307;-81
2021/08/21 09:28:59;;;;;;;3.38;3.08;;;25.10;69.50;;;26.47;49.23;95326.47;5027440;28;20204;-79
2021/08/21 09:31:33;;;;;;;4.28;3.30;;;25.30;69.00;;;26.64;49.01;95331.44;5018588;28;20232;-80
2021/08/21 09:34:04;;;;;;;2.90;2.70;;;25.50;68.20;;;26.80;48.78;95332.13;5018399;28;20226;-80
2021/08/21 09:36:37;;;;;;;3.22;2.92;;;25.70;68.50;;;26.97;48.83;95326.28;5018535;28;20311;-81
2021/08/21 09:39:07;;;;;;;3.13;2.70;;;25.80;67.80;;;27.12;48.80;95330.72;5037191;28;20205;-80
2021/08/21 09:41:57;;;;;;;3.78;2.92;;;26.00;68.00;;;27.22;48.01;95334.38;5035220;28;20240;-81
2021/08/21 09:44:29;;;;;;;3.20;2.90;;;26.10;68.00;;;27.31;48.01;95336.13;5034771;28;20201;-80
2021/08/21 09:47:25;;;;;;;3.10;2.90;;;26.20;67.80;;;27.43;47.87;95334.97;5018260;28;20205;-80
2021/08/21 09:50:13;;;;;;;3.42;3.10;;;26.40;68.00;;;27.57;47.76;95330.44;5035240;28;20229;-80
2021/08/21 09:52:41;;;;;;;3.10;2.80;;;26.50;67.30;;;27.74;47.35;95326.47;5030310;28;20260;-79
2021/08/21 09:55:14;;;;;;;3.15;2.85;;;26.70;67.20;;;27.92;47.11;95331.03;5034258;28;20225;-80
2021/08/21 09:57:42;;;;;;;2.72;2.53;;;26.90;66.70;;;28.06;46.96;95323.06;5043627;28;20595;-79
2021/08/21 10:00:11;;;;;;;3.20;2.90;;;27.00;66.40;;;28.19;46.26;95320.69;5053504;28;20246;-80
2021/08/21 10:02:44;;;;;;;3.72;2.72;;;27.20;66.20;;;28.28;46.19;95321.63;5026976;28;20206;-79
2021/08/21 10:05:11;;;;;;;3.08;2.78;;;27.30;65.90;;;28.33;46.17;95316.16;5054367;28;20218;-81
2021/08/21 10:07:44;;;;;;;3.25;2.70;;;27.40;66.00;;;28.28;46.17;95316.22;5035536;28;20362;-81
2021/08/21 10:10:16;;;;;;;4.90;2.90;;;27.50;65.80;;;28.21;46.53;95318.50;5021619;28;20311;-81
2021/08/21 10:12:46;;;;;;;3.72;3.20;;;27.50;65.50;;;28.09;46.14;95314.38;5052118;28;20274;-80
2021/08/21 10:15:14;;;;;;;3.05;2.60;;;27.60;64.80;;;27.92;46.52;95317.56;5033467;28;20258;-80
2021/08/21 10:17:44;;;;;;;3.10;2.80;;;27.60;65.00;;;27.77;45.92;95326.69;5017409;28;20223;-80
2021/08/21 10:20:13;;;;;;;3.00;2.70;;;27.50;64.40;;;27.63;46.46;95320.41;5017722;28;20216;-80
2021/08/21 10:22:41;;;;;;;3.42;2.92;;;27.40;64.70;;;27.50;46.26;95321.13;5017531;28;20256;-79
2021/08/21 10:25:10;;;;;;;2.70;2.50;;;27.30;64.30;;;27.37;46.48;95327.97;5036631;28;20215;-79
2021/08/21 10:28:10;;;;;;;4.55;3.20;;;27.20;64.50;;;27.17;46.42;95319.88;5050300;28;20225;-80
2021/08/21 10:30:46;;;;;;;2.90;2.70;;;27.10;64.30;;;27.08;46.25;95324.28;5036760;28;20263;-80
2021/08/21 10:33:16;;;;;;;3.30;2.97;;;27.00;64.20;;;27.07;46.24;95313.81;5045782;28;20216;-80